Manyberries, Canada
Current Conditions -  °F | °C
As of 3:00 PM on Thursday 20 Nov 2014 (Local Time) from CYXH Reporting Station
Broken Clouds Broken Clouds  
Wind Chill: 29°   Ceiling: 12000
Heat Index: 36°   Visibility: 30mi
Dew Point: 28°   Wind: 9mph
Humidity: 75%   Direction: 230°SW
Pressure: 29.68"   Gusts: NA
Location:  49.4°N, 110.7°W
Report Text: CYXH 202200Z 23008KT 30SM BKN120 BKN160 02/M02 A2968 RMK AC5AC1 SLP084
Loading
Personal Weather Stations






























Interactive Weather Map New forecast layout! Learn more

10-Day Weather Forecast

Advertisements
Track Severe Weather on mobile